Time;durP1;ratioP1;P1;durP2;ratioP2;P2;SDS_P1;SDS_P2;PMS_P1;PMS_P2;Temp;Humidity;BMP_temperature;BMP_pressure;BME280_temperature;BME280_humidity;BME280_pressure;Samples;Min_cycle;Max_cycle;Signal;HPM_P1;HPM_P2
2022/12/10 00:01:49;;;;;;;5.57;4.57;;;4.90;89.20;;;;;;5009257;28;20320;-73
2022/12/10 00:04:17;;;;;;;4.50;3.63;;;4.90;89.20;;;;;;5010853;28;20318;-73
2022/12/10 00:06:47;;;;;;;6.90;4.70;;;4.90;89.20;;;;;;5010566;28;20336;-73
2022/12/10 00:09:17;;;;;;;5.47;4.10;;;4.90;89.30;;;;;;5006150;28;20305;-72
2022/12/10 00:11:47;;;;;;;5.78;5.07;;;4.90;89.20;;;;;;5006489;28;20632;-72
2022/12/10 00:14:17;;;;;;;6.60;4.10;;;4.90;89.20;;;;;;5012798;28;20364;-73
2022/12/10 00:16:46;;;;;;;5.05;3.95;;;4.90;89.20;;;;;;4986931;28;20198;-73
2022/12/10 00:19:14;;;;;;;5.03;4.20;;;4.90;89.20;;;;;;5007590;28;20813;-73
2022/12/10 00:21:45;;;;;;;5.90;4.10;;;4.90;89.20;;;;;;5016935;28;20194;-72
2022/12/10 00:24:14;;;;;;;7.35;5.00;;;4.90;89.30;;;;;;5007639;28;20508;-73
2022/12/10 00:26:45;;;;;;;5.75;4.05;;;4.90;89.20;;;;;;5007624;28;20195;-72
2022/12/10 00:29:16;;;;;;;5.07;4.10;;;4.90;89.20;;;;;;5008251;28;20597;-72
2022/12/10 00:31:45;;;;;;;6.15;4.80;;;4.80;89.20;;;;;;5006522;28;20329;-74
2022/12/10 00:34:14;;;;;;;5.18;4.15;;;4.80;89.10;;;;;;5015549;28;20625;-74
2022/12/10 00:36:46;;;;;;;5.35;3.78;;;4.90;89.20;;;;;;5007642;28;20234;-73
2022/12/10 00:39:16;;;;;;;5.10;4.30;;;4.80;89.10;;;;;;5008251;28;20235;-72
2022/12/10 00:41:45;;;;;;;4.90;4.20;;;4.80;89.20;;;;;;5016013;28;20198;-71
2022/12/10 00:44:15;;;;;;;5.80;4.13;;;4.90;89.20;;;;;;5008448;28;20225;-73
2022/12/10 00:46:45;;;;;;;6.75;4.70;;;4.80;89.10;;;;;;5003923;28;20292;-74
2022/12/10 00:49:14;;;;;;;4.80;3.80;;;4.90;89.20;;;;;;5006341;28;20638;-75
2022/12/10 00:51:42;;;;;;;4.95;4.45;;;4.80;89.00;;;;;;5023089;28;20281;-73
2022/12/10 00:54:12;;;;;;;5.95;4.47;;;4.80;89.10;;;;;;5005760;28;20276;-73
2022/12/10 00:56:40;;;;;;;6.93;3.83;;;4.80;89.10;;;;;;5007216;28;20194;-73
2022/12/10 00:59:09;;;;;;;4.15;3.50;;;4.80;89.10;;;;;;5004111;28;20621;-74
2022/12/10 01:01:41;;;;;;;4.53;4.13;;;4.80;89.10;;;;;;5005765;28;20194;-72
2022/12/10 01:04:12;;;;;;;5.63;3.65;;;4.80;89.10;;;;;;5006083;28;20229;-73
2022/12/10 01:06:44;;;;;;;7.30;4.75;;;4.80;89.10;;;;;;5023163;28;20212;-74
2022/12/10 01:09:14;;;;;;;5.55;4.45;;;4.80;89.10;;;;;;5005779;28;20225;-75
2022/12/10 01:11:45;;;;;;;9.10;4.43;;;4.80;89.00;;;;;;5029300;28;20216;-73
2022/12/10 01:14:17;;;;;;;6.55;4.25;;;4.80;89.10;;;;;;5006186;28;20248;-73
2022/12/10 01:16:50;;;;;;;4.95;3.90;;;4.80;89.10;;;;;;5002702;28;20606;-75
2022/12/10 01:19:20;;;;;;;4.93;3.92;;;4.80;89.10;;;;;;5007353;28;20222;-72
2022/12/10 01:21:51;;;;;;;7.72;3.78;;;4.80;89.00;;;;;;5015138;28;20229;-72
2022/12/10 01:24:20;;;;;;;7.10;3.78;;;4.80;89.00;;;;;;5006476;28;20747;-73
2022/12/10 01:26:48;;;;;;;5.47;4.50;;;4.80;89.10;;;;;;5003577;28;20246;-74
2022/12/10 01:29:19;;;;;;;5.97;4.10;;;4.80;89.10;;;;;;5006444;28;20729;-75
2022/12/10 01:31:52;;;;;;;4.80;3.95;;;4.80;89.20;;;;;;5008262;28;20305;-73
2022/12/10 01:34:21;;;;;;;6.13;4.82;;;4.80;89.10;;;;;;5007737;28;20604;-71
2022/12/10 01:36:51;;;;;;;6.07;4.30;;;4.80;89.10;;;;;;5006499;28;20305;-74
2022/12/10 01:39:22;;;;;;;5.20;4.60;;;4.80;89.00;;;;;;5003691;28;20655;-73
2022/12/10 01:41:53;;;;;;;6.28;4.75;;;4.80;89.10;;;;;;5007039;28;20577;-73
2022/12/10 01:45:13;;;;;;;6.55;4.60;;;4.80;89.10;;;;;;5006245;28;20256;-75
2022/12/10 01:47:43;;;;;;;5.45;3.95;;;4.80;89.10;;;;;;4930184;29;20311;-75
2022/12/10 01:50:12;;;;;;;5.35;4.07;;;4.80;89.10;;;;;;4937711;28;20829;-73
2022/12/10 01:52:40;;;;;;;6.70;4.45;;;4.80;89.00;;;;;;4963813;28;20313;-74
2022/12/10 01:55:44;;;;;;;5.68;4.43;;;4.80;89.00;;;;;;5008082;28;20543;-73
2022/12/10 01:58:18;;;;;;;5.28;3.78;;;4.80;89.10;;;;;;4997851;28;20252;-72
2022/12/10 02:01:03;;;;;;;6.07;4.00;;;4.80;89.00;;;;;;4994369;28;20195;-73
2022/12/10 02:03:41;;;;;;;5.75;4.60;;;4.80;89.00;;;;;;5028144;28;20222;-74
2022/12/10 02:06:21;;;;;;;6.72;4.40;;;4.80;89.00;;;;;;5006252;28;20197;-73
2022/12/10 02:09:01;;;;;;;5.05;3.92;;;4.80;89.00;;;;;;5001352;28;20789;-73
2022/12/10 02:11:34;;;;;;;7.35;5.65;;;4.80;89.00;;;;;;5005786;28;20255;-74
2022/12/10 02:14:07;;;;;;;5.97;3.95;;;4.80;89.00;;;;;;5005562;28;20720;-74
2022/12/10 02:16:40;;;;;;;6.45;4.28;;;4.80;89.00;;;;;;5003491;28;20210;-72
2022/12/10 02:19:20;;;;;;;5.07;4.57;;;4.80;89.00;;;;;;5005876;28;20217;-74
2022/12/10 02:21:53;;;;;;;5.28;3.80;;;4.80;89.00;;;;;;5006298;28;20737;-73
2022/12/10 02:24:29;;;;;;;6.00;4.60;;;4.80;89.00;;;;;;5010867;28;20639;-74
2022/12/10 02:27:04;;;;;;;4.20;3.80;;;4.70;88.90;;;;;;5005702;28;20593;-73
2022/12/10 02:29:36;;;;;;;7.47;4.85;;;4.80;89.00;;;;;;5005135;28;20312;-73
2022/12/10 02:32:11;;;;;;;4.45;4.05;;;4.80;89.00;;;;;;5005487;28;20214;-74
2022/12/10 02:34:44;;;;;;;4.07;3.67;;;4.80;89.00;;;;;;5005754;28;20204;-73
2022/12/10 02:37:19;;;;;;;6.18;4.47;;;4.80;88.90;;;;;;4999660;28;20721;-74
2022/12/10 02:39:56;;;;;;;6.15;4.90;;;4.70;88.90;;;;;;4999017;28;20628;-73
2022/12/10 02:42:30;;;;;;;5.20;4.13;;;4.70;88.90;;;;;;5005228;28;20186;-74
2022/12/10 02:45:02;;;;;;;6.85;3.92;;;4.80;89.00;;;;;;4995486;28;20669;-73
2022/12/10 02:47:31;;;;;;;6.95;4.60;;;4.80;89.00;;;;;;5004325;28;20230;-73
2022/12/10 02:50:01;;;;;;;6.07;4.40;;;4.70;88.90;;;;;;5009084;28;20293;-73
2022/12/10 02:52:30;;;;;;;4.82;4.38;;;4.70;88.90;;;;;;5011882;28;20317;-72
2022/12/10 02:54:58;;;;;;;4.18;3.70;;;4.80;89.00;;;;;;5003961;28;20841;-73
2022/12/10 02:57:37;;;;;;;4.50;4.10;;;4.80;88.90;;;;;;5004696;28;20262;-73
2022/12/10 03:00:16;;;;;;;6.45;4.50;;;4.70;88.90;;;;;;5006648;28;20228;-74
2022/12/10 03:03:13;;;;;;;5.13;4.63;;;4.70;88.90;;;;;;5005865;28;20225;-73
2022/12/10 03:05:47;;;;;;;4.45;4.03;;;4.70;88.90;;;;;;5004352;28;20201;-73
2022/12/10 03:08:19;;;;;;;5.82;4.10;;;4.70;88.90;;;;;;5004958;28;20233;-73
2022/12/10 03:10:56;;;;;;;4.80;3.97;;;4.70;88.90;;;;;;5008481;28;20901;-74
2022/12/10 03:13:30;;;;;;;5.28;4.13;;;4.70;88.90;;;;;;5005097;28;20329;-74
2022/12/10 03:16:01;;;;;;;7.43;4.75;;;4.70;88.80;;;;;;4999458;28;20252;-74
2022/12/10 03:18:32;;;;;;;5.53;4.18;;;4.70;88.90;;;;;;5002514;28;20724;-74
2022/12/10 03:21:06;;;;;;;4.68;4.13;;;4.70;88.90;;;;;;5007547;28;20198;-73
2022/12/10 03:23:37;;;;;;;5.20;4.13;;;4.70;88.90;;;;;;5021905;28;20222;-74
2022/12/10 03:26:07;;;;;;;6.93;4.30;;;4.70;88.90;;;;;;5007340;28;20199;-73
2022/12/10 03:28:40;;;;;;;4.53;3.30;;;4.70;88.80;;;;;;5023393;28;20220;-73
2022/12/10 03:31:12;;;;;;;8.48;4.25;;;4.70;88.90;;;;;;5009037;28;20217;-73
2022/12/10 03:33:42;;;;;;;5.60;4.60;;;4.70;88.90;;;;;;5008163;28;20249;-73
2022/12/10 03:36:12;;;;;;;7.47;4.60;;;4.70;88.90;;;;;;5009126;28;20229;-73
2022/12/10 03:38:41;;;;;;;7.68;4.60;;;4.70;88.80;;;;;;5005833;28;20221;-74
2022/12/10 03:41:12;;;;;;;6.95;5.03;;;4.70;88.90;;;;;;5021929;28;20190;-73
2022/12/10 03:43:55;;;;;;;6.88;4.57;;;4.70;88.80;;;;;;5010882;28;20308;-73
2022/12/10 03:46:27;;;;;;;7.40;4.60;;;4.70;88.80;;;;;;5006777;28;20301;-73
2022/12/10 03:48:57;;;;;;;6.15;4.80;;;4.70;88.80;;;;;;5011441;28;20220;-73
2022/12/10 03:51:25;;;;;;;6.03;4.63;;;4.70;88.90;;;;;;5013226;28;20709;-73
2022/12/10 03:53:55;;;;;;;6.80;4.70;;;4.70;88.90;;;;;;5006616;28;20522;-73
2022/12/10 03:56:24;;;;;;;7.05;5.32;;;4.70;88.80;;;;;;5007892;28;20844;-73
2022/12/10 03:58:52;;;;;;;5.80;4.35;;;4.70;88.80;;;;;;5007551;28;20318;-73
2022/12/10 04:01:21;;;;;;;7.20;5.40;;;4.70;88.80;;;;;;5007900;28;20182;-73
2022/12/10 04:03:51;;;;;;;6.65;4.32;;;4.70;90.00;;;;;;5007906;28;20249;-73
2022/12/10 04:06:20;;;;;;;6.03;4.15;;;4.70;88.80;;;;;;5007966;28;20208;-72
2022/12/10 04:08:50;;;;;;;7.32;4.90;;;4.70;88.90;;;;;;5006895;28;20233;-73
2022/12/10 04:11:26;;;;;;;6.65;5.60;;;4.70;88.90;;;;;;5023785;28;20245;-73
2022/12/10 04:16:41;;;;;;;6.63;4.68;;;4.70;88.80;;;;;;5004757;28;20206;-74
2022/12/10 04:19:12;;;;;;;7.78;5.63;;;4.70;88.80;;;;;;5014672;28;20229;-72
2022/12/10 04:27:21;;;;;;;5.95;4.72;;;4.70;88.80;;;;;;5007519;28;20698;-72
2022/12/10 04:29:49;;;;;;;8.27;5.13;;;4.70;88.80;;;;;;5007366;28;20198;-74
2022/12/10 04:32:18;;;;;;;7.53;5.05;;;4.70;88.70;;;;;;5003661;28;20296;-73
2022/12/10 04:34:48;;;;;;;6.00;4.57;;;4.70;88.70;;;;;;4999994;28;20192;-73
2022/12/10 04:37:18;;;;;;;5.10;4.60;;;4.70;88.80;;;;;;5009511;28;20214;-73
2022/12/10 04:39:47;;;;;;;7.13;5.35;;;4.70;88.80;;;;;;5003080;28;20213;-73
2022/12/10 04:42:15;;;;;;;7.30;5.38;;;4.70;88.80;;;;;;5006499;28;20209;-73
2022/12/10 04:44:43;;;;;;;8.25;5.25;;;4.60;88.80;;;;;;5003865;28;20202;-74
2022/12/10 04:47:13;;;;;;;6.28;5.20;;;4.70;88.80;;;;;;5024957;28;20305;-73
2022/12/10 04:49:43;;;;;;;8.70;5.78;;;4.60;88.80;;;;;;5017271;28;20190;-74
2022/12/10 04:52:14;;;;;;;7.03;5.15;;;4.60;88.60;;;;;;5007157;28;20653;-73
2022/12/10 04:54:43;;;;;;;8.43;5.78;;;4.70;88.70;;;;;;5026018;28;20201;-74
2022/12/10 04:57:13;;;;;;;7.38;4.70;;;4.70;88.80;;;;;;5011379;28;20214;-73
2022/12/10 04:59:43;;;;;;;9.10;6.43;;;4.60;88.70;;;;;;5007001;28;20248;-73
2022/12/10 05:02:11;;;;;;;9.27;5.85;;;4.70;88.70;;;;;;5003483;28;20675;-73
2022/12/10 05:04:39;;;;;;;6.85;5.22;;;4.60;88.70;;;;;;5008472;28;20241;-73
2022/12/10 05:07:08;;;;;;;8.02;5.10;;;4.60;88.70;;;;;;5006352;28;20217;-73
2022/12/10 05:09:40;;;;;;;10.43;7.30;;;4.60;88.70;;;;;;5006637;28;20200;-74
2022/12/10 05:12:09;;;;;;;7.10;5.10;;;4.60;88.80;;;;;;5008821;28;20221;-74
2022/12/10 05:14:37;;;;;;;6.43;5.05;;;4.60;88.70;;;;;;5024956;28;20277;-73
2022/12/10 05:17:06;;;;;;;8.75;5.93;;;4.60;88.70;;;;;;5008864;28;20245;-73
2022/12/10 05:19:35;;;;;;;7.40;5.50;;;4.60;88.70;;;;;;5006158;28;20325;-73
2022/12/10 05:24:51;;;;;;;6.22;5.03;;;4.60;88.70;;;;;;5012743;28;20194;-72
2022/12/10 05:27:19;;;;;;;7.65;5.10;;;4.60;88.70;;;;;;5006436;28;20595;-73
2022/12/10 05:29:48;;;;;;;8.48;6.32;;;4.60;88.70;;;;;;5012429;28;20554;-75
2022/12/10 05:32:17;;;;;;;10.77;6.20;;;4.60;88.60;;;;;;5003802;28;20257;-73
2022/12/10 05:34:45;;;;;;;7.90;5.35;;;4.60;88.60;;;;;;5010341;28;20191;-73
2022/12/10 05:37:13;;;;;;;7.90;5.88;;;4.60;88.60;;;;;;5005394;28;20229;-73
2022/12/10 05:39:44;;;;;;;7.90;6.47;;;4.60;88.60;;;;;;5021313;28;20209;-68
2022/12/10 05:42:14;;;;;;;7.07;5.53;;;4.60;88.60;;;;;;5006608;28;20201;-69
2022/12/10 05:44:43;;;;;;;8.20;5.07;;;4.60;88.60;;;;;;5006405;28;20674;-70
2022/12/10 05:47:12;;;;;;;7.63;5.68;;;4.60;88.60;;;;;;5002808;28;20749;-70
2022/12/10 05:49:40;;;;;;;10.27;6.25;;;4.60;88.60;;;;;;5021494;28;20194;-69
2022/12/10 05:52:09;;;;;;;7.22;5.03;;;4.60;88.60;;;;;;5030777;28;20262;-70
2022/12/10 05:54:38;;;;;;;6.45;5.18;;;4.60;88.70;;;;;;5005385;28;20198;-69
2022/12/10 05:57:07;;;;;;;8.40;5.53;;;4.60;88.60;;;;;;5005305;28;20217;-69
2022/12/10 05:59:37;;;;;;;10.45;6.15;;;4.60;88.70;;;;;;5005612;28;20313;-69
2022/12/10 06:02:05;;;;;;;7.65;5.10;;;4.60;88.60;;;;;;5010692;28;20284;-69
2022/12/10 06:04:36;;;;;;;9.00;6.10;;;4.60;88.60;;;;;;5007423;28;20194;-69
2022/12/10 06:07:04;;;;;;;8.70;5.50;;;4.60;88.60;;;;;;5016387;28;20350;-70
2022/12/10 06:09:38;;;;;;;9.48;5.88;;;4.60;88.70;;;;;;5003690;28;20198;-69
2022/12/10 06:12:07;;;;;;;10.23;6.30;;;4.60;88.70;;;;;;5006114;28;20248;-69
2022/12/10 06:14:36;;;;;;;8.27;5.68;;;4.60;88.60;;;;;;5007072;28;20305;-67
2022/12/10 06:17:05;;;;;;;8.65;6.13;;;4.60;88.60;;;;;;5004321;28;20579;-69
2022/12/10 06:19:33;;;;;;;7.57;5.97;;;4.60;88.60;;;;;;5021847;28;20202;-67
2022/12/10 06:22:02;;;;;;;9.88;6.18;;;4.60;88.60;;;;;;5011396;28;20730;-70
2022/12/10 06:24:31;;;;;;;10.27;6.00;;;4.60;88.60;;;;;;5005830;28;20200;-69
2022/12/10 06:26:59;;;;;;;7.40;5.88;;;4.60;88.70;;;;;;5024916;28;20218;-68
2022/12/10 06:29:27;;;;;;;7.60;5.95;;;4.50;88.50;;;;;;5012613;28;20229;-69
2022/12/10 06:31:57;;;;;;;8.60;5.72;;;4.60;88.70;;;;;;5004378;28;20194;-68
2022/12/10 06:34:26;;;;;;;9.10;5.20;;;4.60;88.70;;;;;;5003762;28;20229;-70
2022/12/10 06:36:55;;;;;;;7.50;5.75;;;4.60;88.70;;;;;;5008305;28;20221;-69
2022/12/10 06:39:24;;;;;;;12.00;6.30;;;4.60;88.70;;;;;;5008674;28;20226;-67
2022/12/10 06:41:52;;;;;;;9.77;5.95;;;4.50;88.60;;;;;;5005625;28;20670;-69
2022/12/10 06:44:26;;;;;;;7.40;6.10;;;4.60;88.80;;;;;;5003932;28;20581;-68
2022/12/10 06:46:54;;;;;;;9.95;5.80;;;4.60;89.80;;;;;;5004629;28;20604;-69
2022/12/10 06:49:24;;;;;;;8.65;6.53;;;4.50;88.60;;;;;;5004872;28;20288;-67
2022/12/10 06:51:54;;;;;;;9.13;5.40;;;4.50;88.60;;;;;;4987685;28;20254;-66
2022/12/10 06:54:22;;;;;;;8.35;5.68;;;4.50;88.60;;;;;;5020296;28;20220;-67
2022/12/10 06:56:50;;;;;;;8.27;5.47;;;4.50;88.60;;;;;;5014515;28;20637;-67
2022/12/10 06:59:20;;;;;;;8.82;5.72;;;4.50;88.60;;;;;;5013783;28;20213;-69
2022/12/10 07:01:48;;;;;;;8.60;5.35;;;4.50;88.60;;;;;;5002809;28;20218;-69
2022/12/10 07:04:17;;;;;;;8.07;5.70;;;4.50;88.70;;;;;;5004462;28;20702;-67
2022/12/10 07:06:47;;;;;;;8.55;5.43;;;4.50;88.50;;;;;;5014844;28;20205;-67
2022/12/10 07:09:16;;;;;;;8.73;5.95;;;4.50;88.60;;;;;;5003444;28;20318;-69
2022/12/10 07:11:45;;;;;;;8.63;5.55;;;4.50;88.60;;;;;;5008870;28;20229;-69
2022/12/10 07:14:16;;;;;;;8.13;5.47;;;4.60;88.70;;;;;;5024801;28;20470;-68
2022/12/10 07:16:46;;;;;;;9.90;6.05;;;4.50;88.60;;;;;;5005381;28;20285;-68
2022/12/10 07:19:15;;;;;;;8.60;5.90;;;4.50;88.60;;;;;;5028581;28;20380;-69
2022/12/10 07:21:45;;;;;;;7.82;6.00;;;4.50;88.50;;;;;;5003356;28;20202;-67
2022/12/10 07:24:18;;;;;;;11.98;5.72;;;4.50;88.50;;;;;;5007654;28;20224;-67
2022/12/10 07:26:48;;;;;;;10.18;6.07;;;4.50;88.50;;;;;;5017301;28;20189;-68
2022/12/10 07:29:19;;;;;;;8.05;5.75;;;4.50;88.60;;;;;;5007915;28;20249;-66
2022/12/10 07:31:49;;;;;;;11.63;7.45;;;4.50;88.50;;;;;;5015225;28;20202;-67
2022/12/10 07:34:19;;;;;;;10.93;4.75;;;4.50;88.60;;;;;;5024502;28;20313;-67
2022/12/10 07:36:48;;;;;;;7.93;5.45;;;4.50;88.60;;;;;;5001623;28;20199;-68
2022/12/10 07:39:19;;;;;;;9.60;5.38;;;4.50;88.60;;;;;;5004464;28;20253;-67
2022/12/10 07:41:49;;;;;;;9.50;5.57;;;4.50;88.70;;;;;;5023664;28;20202;-68
2022/12/10 07:44:20;;;;;;;8.70;6.40;;;4.50;88.50;;;;;;4995424;28;20659;-67
2022/12/10 07:46:49;;;;;;;8.98;5.63;;;4.50;88.60;;;;;;4989031;28;20286;-67
2022/12/10 07:49:20;;;;;;;7.35;5.05;;;4.50;88.50;;;;;;5034657;28;20221;-67
2022/12/10 07:51:51;;;;;;;10.30;6.85;;;4.50;88.60;;;;;;5003036;28;20669;-68
2022/12/10 07:54:22;;;;;;;11.90;6.43;;;4.50;88.50;;;;;;5009637;28;20675;-67
2022/12/10 07:56:51;;;;;;;8.23;5.45;;;4.50;88.60;;;;;;5012708;28;20717;-68
2022/12/10 07:59:20;;;;;;;7.97;5.28;;;4.50;88.60;;;;;;5020643;28;20835;-68
2022/12/10 08:01:51;;;;;;;8.52;5.45;;;4.50;88.60;;;;;;5017166;28;20194;-68
2022/12/10 08:04:22;;;;;;;8.93;4.97;;;4.50;88.40;;;;;;5006432;28;20222;-69
2022/12/10 08:06:58;;;;;;;8.50;6.20;;;4.50;88.60;;;;;;5012014;28;20772;-69
2022/12/10 08:09:30;;;;;;;8.10;5.30;;;4.50;88.60;;;;;;5006584;28;20674;-68
2022/12/10 08:12:01;;;;;;;6.93;5.15;;;4.50;88.50;;;;;;5014560;28;20212;-67
2022/12/10 08:14:36;;;;;;;8.52;6.10;;;4.50;88.50;;;;;;5002915;28;20256;-67
2022/12/10 08:17:07;;;;;;;9.00;6.30;;;4.50;88.60;;;;;;5030575;28;20213;-67
2022/12/10 08:19:40;;;;;;;9.63;5.90;;;4.50;88.50;;;;;;5010729;28;20194;-68
2022/12/10 08:22:11;;;;;;;8.57;5.15;;;4.50;88.50;;;;;;5007069;28;20202;-68
2022/12/10 08:24:46;;;;;;;10.55;7.00;;;4.40;88.50;;;;;;5008513;28;20282;-67
2022/12/10 08:27:15;;;;;;;9.18;5.20;;;4.50;88.50;;;;;;5008785;28;20235;-67
2022/12/10 08:29:52;;;;;;;7.25;5.20;;;4.40;88.50;;;;;;5008222;28;20198;-67
2022/12/10 08:32:23;;;;;;;8.68;5.10;;;4.50;88.60;;;;;;5006013;28;20696;-67
2022/12/10 08:34:52;;;;;;;8.93;5.43;;;4.50;88.60;;;;;;5010087;28;20198;-68
2022/12/10 08:37:20;;;;;;;8.85;6.25;;;4.50;88.50;;;;;;5008941;28;20221;-67
2022/12/10 08:39:50;;;;;;;6.20;5.50;;;4.50;88.70;;;;;;5007797;28;20202;-67
2022/12/10 08:42:19;;;;;;;8.43;5.28;;;4.50;88.60;;;;;;5008009;28;20641;-67
2022/12/10 08:44:47;;;;;;;7.57;5.47;;;4.40;88.50;;;;;;5006750;28;20187;-68
2022/12/10 08:47:16;;;;;;;8.13;5.38;;;4.40;88.40;;;;;;5024010;28;20217;-67
2022/12/10 08:49:44;;;;;;;12.20;6.40;;;4.50;88.50;;;;;;5002106;28;20685;-73
2022/12/10 08:52:13;;;;;;;7.50;5.50;;;4.50;88.60;;;;;;5008159;28;20650;-74
2022/12/10 08:54:41;;;;;;;7.60;4.88;;;4.50;88.60;;;;;;5003805;28;20678;-72
2022/12/10 08:57:11;;;;;;;9.05;5.55;;;4.50;88.50;;;;;;5006714;28;20340;-73
2022/12/10 08:59:40;;;;;;;8.70;5.55;;;4.50;88.50;;;;;;5023330;28;20327;-73
2022/12/10 09:02:11;;;;;;;9.43;5.90;;;4.50;88.50;;;;;;5005820;28;20248;-73
2022/12/10 09:04:39;;;;;;;8.02;5.82;;;4.50;88.60;;;;;;5008148;28;20373;-69
2022/12/10 09:07:08;;;;;;;9.75;5.70;;;4.40;88.40;;;;;;5007598;28;20233;-68
2022/12/10 09:09:40;;;;;;;10.80;5.45;;;4.40;88.40;;;;;;5004696;28;20290;-67
2022/12/10 09:12:10;;;;;;;8.80;5.72;;;4.50;88.50;;;;;;5015674;28;20206;-68
2022/12/10 09:14:40;;;;;;;7.45;5.53;;;4.50;88.50;;;;;;5022515;28;20214;-68
2022/12/10 09:17:08;;;;;;;10.27;6.22;;;4.40;88.40;;;;;;5021622;28;20362;-69
2022/12/10 09:19:37;;;;;;;7.82;5.38;;;4.50;88.40;;;;;;5005228;28;20204;-69
2022/12/10 09:22:05;;;;;;;7.60;5.20;;;4.40;88.30;;;;;;5008340;28;20677;-69
2022/12/10 09:24:34;;;;;;;9.75;6.05;;;4.40;88.40;;;;;;5005958;28;20414;-73
2022/12/10 09:27:03;;;;;;;8.32;5.25;;;4.50;88.50;;;;;;5012011;28;20214;-73
2022/12/10 09:29:33;;;;;;;7.85;5.78;;;4.40;88.40;;;;;;5023505;28;20248;-72
2022/12/10 09:32:01;;;;;;;8.50;5.60;;;4.50;88.50;;;;;;5005532;28;20542;-69
2022/12/10 09:34:30;;;;;;;6.68;4.88;;;4.40;88.40;;;;;;5022300;28;20684;-68
2022/12/10 09:36:58;;;;;;;7.40;5.00;;;4.50;88.40;;;;;;5004657;28;20242;-74
2022/12/10 09:39:27;;;;;;;13.32;6.45;;;4.50;88.70;;;;;;5019575;28;20230;-73
2022/12/10 09:42:08;;;;;;;14.70;10.32;;;4.50;88.50;;;;;;5025290;28;20217;-72
2022/12/10 09:44:52;;;;;;;15.20;10.00;;;4.50;88.20;;;;;;5032434;28;20740;-74
2022/12/10 09:47:25;;;;;;;15.55;9.60;;;4.50;88.10;;;;;;5019796;28;20237;-73
2022/12/10 09:50:03;;;;;;;15.73;9.57;;;4.50;88.10;;;;;;5005812;28;20198;-74
2022/12/10 09:52:44;;;;;;;14.98;9.75;;;4.50;88.20;;;;;;5015575;28;20222;-73
2022/12/10 09:55:16;;;;;;;12.63;9.82;;;4.50;88.20;;;;;;5003351;28;20318;-72
2022/12/10 09:57:47;;;;;;;14.23;9.88;;;4.50;88.10;;;;;;5001924;28;20218;-73
2022/12/10 10:00:24;;;;;;;13.35;9.55;;;4.50;88.20;;;;;;5005516;28;20233;-72
2022/12/10 10:02:56;;;;;;;13.63;8.60;;;4.50;88.10;;;;;;4997254;28;20224;-72
2022/12/10 10:05:27;;;;;;;14.27;9.25;;;4.50;88.20;;;;;;5023208;28;20318;-72
2022/12/10 10:08:00;;;;;;;14.52;9.40;;;4.50;88.10;;;;;;5005188;28;20275;-72
2022/12/10 10:10:31;;;;;;;15.27;9.15;;;4.40;88.00;;;;;;5006720;28;20190;-74
2022/12/10 10:13:02;;;;;;;12.02;7.70;;;4.40;88.10;;;;;;5021318;28;20225;-74
2022/12/10 10:15:34;;;;;;;10.73;7.50;;;4.50;88.20;;;;;;5006991;28;20640;-69
2022/12/10 10:18:09;;;;;;;11.75;7.60;;;4.40;88.10;;;;;;5002832;28;20214;-72
2022/12/10 10:20:38;;;;;;;10.15;7.50;;;4.50;88.20;;;;;;5022033;28;20222;-73
2022/12/10 10:23:13;;;;;;;13.88;9.05;;;4.50;88.20;;;;;;5022454;28;20711;-72
2022/12/10 10:25:42;;;;;;;13.13;8.93;;;4.50;88.20;;;;;;5008718;28;20266;-72
2022/12/10 10:28:13;;;;;;;13.80;8.50;;;4.50;88.10;;;;;;5012004;28;20217;-69
2022/12/10 10:30:45;;;;;;;16.23;9.98;;;4.50;88.10;;;;;;5005519;28;20190;-68
2022/12/10 10:33:16;;;;;;;11.07;7.35;;;4.50;88.10;;;;;;5014835;28;20197;-69
2022/12/10 10:35:48;;;;;;;11.82;8.05;;;4.50;88.30;;;;;;5005155;28;20319;-68
2022/12/10 10:38:22;;;;;;;10.57;7.80;;;4.40;88.20;;;;;;5015525;28;20224;-71
2022/12/10 10:40:53;;;;;;;11.27;8.38;;;4.40;88.00;;;;;;5010969;28;20600;-69
2022/12/10 10:43:24;;;;;;;10.57;7.32;;;4.40;88.10;;;;;;5013604;28;20218;-68
2022/12/10 10:45:57;;;;;;;10.35;7.70;;;4.40;88.10;;;;;;5004712;28;20376;-69
2022/12/10 10:48:30;;;;;;;13.13;7.80;;;4.40;88.10;;;;;;5004401;28;20221;-68
2022/12/10 10:51:08;;;;;;;7.43;5.88;;;4.50;88.20;;;;;;5001165;28;20210;-69
2022/12/10 10:53:49;;;;;;;14.82;7.15;;;4.40;88.10;;;;;;5002922;28;20221;-69
2022/12/10 10:56:22;;;;;;;9.57;7.47;;;4.40;88.20;;;;;;5001512;28;20216;-69
2022/12/10 10:59:01;;;;;;;12.00;6.85;;;4.40;88.10;;;;;;5021088;28;20647;-69
2022/12/10 11:01:47;;;;;;;9.93;6.22;;;4.50;88.30;;;;;;5005614;28;20214;-70
2022/12/10 11:04:17;;;;;;;9.93;7.03;;;4.50;88.20;;;;;;5004562;28;20259;-69
2022/12/10 11:06:46;;;;;;;9.00;7.10;;;4.40;88.20;;;;;;4999170;28;20197;-73
2022/12/10 11:09:21;;;;;;;9.57;6.32;;;4.40;88.20;;;;;;5007159;28;20896;-72
2022/12/10 11:11:59;;;;;;;8.65;6.20;;;4.40;88.20;;;;;;5005633;28;20204;-73
2022/12/10 11:14:31;;;;;;;8.95;6.90;;;4.50;88.30;;;;;;5011136;28;20287;-72
2022/12/10 11:17:19;;;;;;;10.45;7.63;;;4.40;88.30;;;;;;5004086;28;20237;-75
2022/12/10 11:20:00;;;;;;;11.38;6.97;;;4.40;88.30;;;;;;5016214;28;20205;-72
2022/12/10 11:22:31;;;;;;;7.75;5.97;;;4.40;88.20;;;;;;5016712;28;20306;-74
2022/12/10 11:25:01;;;;;;;9.30;6.93;;;4.50;88.30;;;;;;5011283;28;20207;-74
2022/12/10 11:27:41;;;;;;;11.35;7.40;;;4.40;88.30;;;;;;5005151;28;20272;-73
2022/12/10 11:30:15;;;;;;;11.45;6.43;;;4.40;88.30;;;;;;5004006;28;20198;-74
2022/12/10 11:33:07;;;;;;;10.27;6.63;;;4.40;88.30;;;;;;5012533;28;20225;-72
2022/12/10 11:35:48;;;;;;;7.80;5.68;;;4.50;88.40;;;;;;5013539;28;20301;-73
2022/12/10 11:38:25;;;;;;;11.40;7.38;;;4.40;89.60;;;;;;5005053;28;20544;-73
2022/12/10 11:41:02;;;;;;;10.10;7.03;;;4.50;88.40;;;;;;5005161;28;20229;-73
2022/12/10 11:43:53;;;;;;;9.38;6.25;;;4.50;88.40;;;;;;5004831;28;20242;-73
2022/12/10 11:46:39;;;;;;;9.63;6.82;;;4.50;88.50;;;;;;5006922;28;20565;-73
2022/12/10 11:49:22;;;;;;;9.95;6.43;;;4.50;88.40;;;;;;5006281;28;20249;-73
2022/12/10 11:52:02;;;;;;;9.85;6.38;;;4.40;88.40;;;;;;5007279;28;20629;-73
2022/12/10 11:54:46;;;;;;;10.10;6.57;;;4.50;88.50;;;;;;5007520;28;20217;-73
2022/12/10 11:57:21;;;;;;;8.15;5.90;;;4.40;88.40;;;;;;5018837;28;20226;-74
2022/12/10 11:59:57;;;;;;;7.88;6.03;;;4.50;88.50;;;;;;5000124;28;20190;-72
2022/12/10 12:03:07;;;;;;;7.10;5.82;;;4.40;88.40;;;;;;5011218;28;20232;-72
2022/12/10 12:05:57;;;;;;;9.60;7.13;;;4.50;88.60;;;;;;5007695;28;20190;-73
2022/12/10 12:08:42;;;;;;;7.97;5.75;;;4.50;88.60;;;;;;5006901;28;20294;-73
2022/12/10 12:11:18;;;;;;;8.05;6.63;;;4.50;88.60;;;;;;5015150;28;20678;-74
2022/12/10 12:13:57;;;;;;;9.52;6.43;;;4.50;88.50;;;;;;5016939;28;20213;-73
2022/12/10 12:16:30;;;;;;;17.30;11.57;;;4.40;88.60;;;;;;5003830;28;20451;-73
2022/12/10 12:19:02;;;;;;;14.07;9.85;;;4.40;87.80;;;;;;5011893;28;20337;-73
2022/12/10 12:21:32;;;;;;;12.73;9.00;;;4.40;88.10;;;;;;5005694;28;20226;-69
2022/12/10 12:24:07;;;;;;;14.55;8.85;;;4.40;88.20;;;;;;5007351;28;20225;-69
2022/12/10 12:26:39;;;;;;;11.70;8.50;;;4.40;88.30;;;;;;5007684;28;20221;-70
2022/12/10 12:29:16;;;;;;;11.77;7.70;;;4.40;88.30;;;;;;5006332;28;20288;-69
2022/12/10 12:31:48;;;;;;;13.35;8.63;;;4.40;88.40;;;;;;5004436;28;20190;-70
2022/12/10 12:34:22;;;;;;;9.70;8.63;;;4.40;88.40;;;;;;5012694;28;20218;-70
2022/12/10 12:36:53;;;;;;;11.02;7.72;;;4.40;88.40;;;;;;5000650;28;20951;-69
2022/12/10 12:39:31;;;;;;;12.10;8.10;;;4.40;88.40;;;;;;5008671;28;20228;-70
2022/12/10 12:42:07;;;;;;;13.32;7.47;;;4.50;88.60;;;;;;5008075;28;20209;-71
2022/12/10 12:44:47;;;;;;;13.68;9.25;;;4.50;88.60;;;;;;5008961;28;20218;-71
2022/12/10 12:47:23;;;;;;;10.43;6.72;;;4.40;88.50;;;;;;5008406;28;20222;-74
2022/12/10 12:49:52;;;;;;;10.70;7.45;;;4.40;88.50;;;;;;5002283;28;20225;-69
2022/12/10 12:52:33;;;;;;;9.73;7.03;;;4.50;88.70;;;;;;5007507;28;20666;-73
2022/12/10 12:55:12;;;;;;;11.35;8.05;;;4.40;88.60;;;;;;5008377;28;20193;-71
2022/12/10 12:57:45;;;;;;;9.18;7.22;;;4.40;88.50;;;;;;5008648;28;20248;-70
2022/12/10 13:00:18;;;;;;;10.70;8.13;;;4.40;88.60;;;;;;5010680;28;20198;-70
2022/12/10 13:02:56;;;;;;;8.00;7.15;;;4.50;88.60;;;;;;5016377;28;20245;-70
2022/12/10 13:05:29;;;;;;;10.93;7.47;;;4.40;88.60;;;;;;5004403;28;20959;-69
2022/12/10 13:08:29;;;;;;;11.43;7.20;;;4.40;88.50;;;;;;5001875;28;20233;-70
2022/12/10 13:11:01;;;;;;;12.32;6.40;;;4.50;88.70;;;;;;5007815;28;20225;-72
2022/12/10 13:13:32;;;;;;;10.52;7.85;;;4.50;88.80;;;;;;5015275;28;20226;-72
2022/12/10 13:16:35;;;;;;;11.73;7.80;;;4.40;88.60;;;;;;5012413;28;20765;-72
2022/12/10 13:19:25;;;;;;;9.80;6.40;;;4.50;88.80;;;;;;5005486;28;20233;-69
2022/12/10 13:22:05;;;;;;;9.75;7.65;;;4.50;89.90;;;;;;4990599;28;20680;-69
2022/12/10 13:25:08;;;;;;;11.65;7.25;;;4.40;88.60;;;;;;5007662;28;20229;-69
2022/12/10 13:27:37;;;;;;;9.18;7.22;;;4.40;88.60;;;;;;5021460;28;20220;-70
2022/12/10 13:30:35;;;;;;;9.50;7.20;;;4.40;88.60;;;;;;5006376;28;20476;-72
2022/12/10 13:33:16;;;;;;;10.75;7.32;;;4.40;88.60;;;;;;5007688;28;20218;-72
2022/12/10 13:35:58;;;;;;;11.57;7.00;;;4.40;88.80;;;;;;5015740;28;20208;-73